Brooklyn — WDH7110 — position and weather

sailwx.info

Track history (hours):
 
Tides and Currents Weather Stations Pressure Air Temp Water Temp Dewpoint Dewpoint Depression Visibility Wind Speed Wind Dir Waves Ship Positions

Brooklyn

Owner: Apex Towing Company, Port Allen, LA. More information available from US FCC via Universal Licensing System and Coast Guard Vessel Documentation Center.

Last reported at 2018-Jun-24 01:30 UTC. Time now 2018-Jun-24 01:36 UTC.
Position N 39°16' W 076°34'.

Length 30 m; draft 4 m.

Type: Towing. MMSI: 367644910.

Date/timePositionNaut miles runAvg speedWind from/ knotsBaromVisibWave heightAir tempDewpointWater temp
2018-Jun-24 01:30N 39°16' W 076°34'0 0.0
2018-Jun-24 01:00N 39°16' W 076°34'0 0.0
2018-Jun-24 00:30N 39°16' W 076°34'0 0.0
2018-Jun-24 00:00N 39°16' W 076°34'0 0.0
2018-Jun-23 23:30N 39°16' W 076°34'0 0.0
2018-Jun-23 23:00N 39°16' W 076°34'0 0.0
2018-Jun-23 22:30N 39°16' W 076°34'0 0.0
2018-Jun-23 22:00N 39°16' W 076°34'0 0.0
2018-Jun-23 21:30N 39°16' W 076°34'0 0.0
2018-Jun-23 21:00N 39°16' W 076°34'0 0.0
2018-Jun-23 20:30N 39°16' W 076°34'0 0.0
2018-Jun-23 20:00N 39°16' W 076°34'0 0.0
2018-Jun-23 19:30N 39°16' W 076°34'0 0.0
2018-Jun-23 19:00N 39°16' W 076°34'0 0.0
2018-Jun-23 18:30N 39°16' W 076°34'0 0.0
2018-Jun-23 18:00N 39°16' W 076°34'0 0.0
2018-Jun-23 17:30N 39°16' W 076°34'0 0.0
2018-Jun-23 17:00N 39°16' W 076°34'0 0.0
2018-Jun-23 16:30N 39°16' W 076°34'0 0.0
2018-Jun-23 16:00N 39°16' W 076°34'0 0.0
2018-Jun-23 15:30N 39°16' W 076°34'0 0.0
2018-Jun-23 15:00N 39°16' W 076°34'0 0.0
2018-Jun-23 14:30N 39°16' W 076°34'0 0.0
2018-Jun-23 14:00N 39°16' W 076°34'0 0.0
2018-Jun-23 13:30N 39°16' W 076°34'0 0.0
2018-Jun-23 13:00N 39°16' W 076°34'0 0.0
2018-Jun-23 12:30N 39°16' W 076°34'0 0.0
2018-Jun-23 12:00N 39°16' W 076°34'0 0.0
2018-Jun-23 11:30N 39°16' W 076°34'0 0.0
2018-Jun-23 11:00N 39°16' W 076°34'0 0.0
2018-Jun-23 10:30N 39°16' W 076°34'0 0.0
2018-Jun-23 10:00N 39°16' W 076°34'0 0.0
2018-Jun-23 09:30N 39°16' W 076°34'0 0.0
2018-Jun-23 09:00N 39°16' W 076°34'0 0.0
2018-Jun-23 08:30N 39°16' W 076°34'0 0.0
2018-Jun-23 08:00N 39°16' W 076°34'0 0.2
2018-Jun-23 07:31N 39°16' W 076°34'3 5.5
2018-Jun-23 07:00N 39°14' W 076°33'4 7.7
2018-Jun-23 06:27N 39°11' W 076°28'12 5.4
2018-Jun-23 04:17N 39°15' W 076°14'5 7.0
2018-Jun-23 03:32N 39°20' W 076°11'0 7.8
2018-Jun-23 03:30N 39°20' W 076°11'4 7.8
2018-Jun-23 03:00N 39°23' W 076°07'4 7.6
2018-Jun-23 02:30N 39°24' W 076°03'4 7.2
2018-Jun-23 02:00N 39°27' W 075°60'4 7.4
2018-Jun-23 01:30N 39°30' W 075°56'4 7.4
2018-Jun-23 01:00N 39°32' W 075°52'4 7.0
2018-Jun-23 00:30N 39°32' W 075°48'4 7.6
2018-Jun-23 00:00N 39°33' W 075°43'4 7.7
2018-Jun-22 23:30N 39°33' W 075°38'4 7.2
2018-Jun-22 23:00N 39°34' W 075°33'3 5.5
2018-Jun-22 22:30N 39°31' W 075°33'1 2.3
2018-Jun-22 22:00N 39°30' W 075°33'1 1.7
2018-Jun-22 21:30N 39°29' W 075°34'3 6.8
2018-Jun-22 21:00N 39°26' W 075°32'4 7.7
2018-Jun-22 20:30N 39°23' W 075°29'4 7.1
2018-Jun-22 20:00N 39°20' W 075°26'3 7.0
2018-Jun-22 19:30N 39°18' W 075°23'3 6.6
2018-Jun-22 19:01N 39°15' W 075°20'3 6.1
2018-Jun-22 18:30N 39°13' W 075°17'3 6.2
2018-Jun-22 18:00N 39°10' W 075°16'3 6.6
2018-Jun-22 17:30N 39°07' W 075°13'3 6.1
2018-Jun-22 17:00N 39°05' W 075°11'3 5.9
2018-Jun-22 16:29N 39°02' W 075°09'7 5.8
2018-Jun-22 15:19N 38°56' W 075°06'3 6.3
2018-Jun-22 14:54N 38°53' W 075°04'12 4.9
2018-Jun-22 12:30N 38°51' W 074°50'4 7.4
2018-Jun-22 12:01N 38°54' W 074°47'4 7.6
2018-Jun-22 11:31N 38°57' W 074°44'4 7.4
2018-Jun-22 10:59N 38°60' W 074°41'4 7.6
2018-Jun-22 10:31N 39°02' W 074°37'5 7.8
2018-Jun-22 09:56N 39°05' W 074°33'3 8.1
2018-Jun-22 09:30N 39°08' W 074°30'4 8.0
2018-Jun-22 09:00N 39°11' W 074°27'4 8.1
2018-Jun-22 08:30N 39°14' W 074°23'4 7.9
2018-Jun-22 07:57N 39°17' W 074°20'3 7.7
2018-Jun-22 07:30N 39°20' W 074°17'5 7.9
2018-Jun-22 06:56N 39°24' W 074°13'3 7.9
2018-Jun-22 06:30N 39°26' W 074°11'4 7.9
2018-Jun-22 06:00N 39°30' W 074°08'4 7.7
2018-Jun-22 05:28N 39°33' W 074°05'4 7.6
2018-Jun-22 04:59N 39°37' W 074°03'4 7.5
2018-Jun-22 04:30N 39°40' W 074°01'11 7.5
2018-Jun-22 03:05N 39°50' W 073°57'41 7.1
2018-Jun-21 21:23N 40°31' W 073°59'3 6.8
2018-Jun-21 21:00N 40°32' W 074°01'3 4.5
2018-Jun-21 20:20N 40°35' W 074°02'0 0.2
2018-Jun-21 19:57N 40°35' W 074°02'2 4.4
2018-Jun-21 19:30N 40°37' W 074°03'3 5.5
2018-Jun-21 19:00N 40°40' W 074°03'3 5.8
2018-Jun-21 18:30N 40°43' W 074°02'3 6.5
2018-Jun-21 18:00N 40°46' W 074°01'  
2018-Jun-18 17:12N 40°52' W 073°56'5 9.3
2018-Jun-18 16:42N 40°48' W 073°59'0 0.4
2018-Jun-18 16:18N 40°48' W 073°59'2 5.4
2018-Jun-18 16:00N 40°47' W 073°60'612.9
2018-Jun-18 15:30N 40°41' W 074°03'4 7.0
2018-Jun-18 14:58N 40°39' W 074°07'0 0.0
2018-Jun-18 14:10N 40°39' W 074°07'0 0.0
2018-Jun-18 13:52N 40°39' W 074°07'0 0.0
2018-Jun-18 13:25N 40°39' W 074°07'0 0.0
2018-Jun-18 12:55N 40°39' W 074°07'0 0.0
2018-Jun-18 12:26N 40°39' W 074°07'0 0.1
2018-Jun-18 10:23N 40°39' W 074°07'0 0.0
2018-Jun-18 09:58N 40°39' W 074°07'0 0.0
2018-Jun-18 09:29N 40°39' W 074°07'0 0.0
2018-Jun-18 08:59N 40°39' W 074°07'0 0.0
2018-Jun-18 08:27N 40°39' W 074°07'0 0.0
2018-Jun-18 07:59N 40°39' W 074°07'0 0.0
2018-Jun-18 07:29N 40°39' W 074°07'0 0.0
2018-Jun-18 06:57N 40°39' W 074°07'0 0.0
2018-Jun-18 06:30N 40°39' W 074°07'0 0.0
2018-Jun-18 06:00N 40°39' W 074°07'0 0.0
2018-Jun-18 04:23N 40°39' W 074°07'0 0.0
2018-Jun-18 03:37N 40°39' W 074°07'0 0.0
2018-Jun-18 01:42N 40°39' W 074°07'0 0.0
2018-Jun-18 01:30N 40°39' W 074°07'0 0.0
2018-Jun-18 00:43N 40°39' W 074°07'0 0.0
2018-Jun-18 00:24N 40°39' W 074°07'0 0.0
2018-Jun-17 23:44N 40°39' W 074°07'0 0.0
2018-Jun-17 23:28N 40°39' W 074°07'0 0.0
2018-Jun-17 22:55N 40°39' W 074°07'0 0.0
2018-Jun-17 22:30N 40°39' W 074°07'0 0.0
2018-Jun-17 21:46N 40°39' W 074°07'0 0.0
2018-Jun-17 21:30N 40°39' W 074°07'3 5.6
2018-Jun-17 21:00N 40°38' W 074°03'3 4.6
2018-Jun-17 20:24N 40°36' W 074°02'0 0.5
2018-Jun-17 19:36N 40°36' W 074°02'1 8.9
2018-Jun-17 19:29N 40°37' W 074°03'4 7.3
2018-Jun-17 19:00N 40°39' W 074°07'5 0.3
2018-Jun-17 05:33N 40°37' W 074°12'0 9.6
2018-Jun-17 05:31N 40°37' W 074°12'4 8.8
2018-Jun-17 05:00N 40°39' W 074°07'0 0.2
2018-Jun-17 04:30N 40°39' W 074°07'0 0.0
2018-Jun-17 03:49N 40°39' W 074°07'0 0.0
2018-Jun-17 03:27N 40°39' W 074°07'0 0.9
2018-Jun-17 03:00N 40°39' W 074°07'0 0.0
2018-Jun-17 02:30N 40°39' W 074°07'0 0.0
2018-Jun-17 02:00N 40°39' W 074°07'0 0.0
2018-Jun-17 01:30N 40°39' W 074°07'0 0.0
2018-Jun-17 01:00N 40°39' W 074°07'1 2.6
2018-Jun-17 00:30N 40°39' W 074°09'4 8.0
2018-Jun-17 00:00N 40°42' W 074°07'0 0.2
2018-Jun-16 23:30N 40°43' W 074°07'0 0.0
2018-Jun-16 23:00N 40°43' W 074°07'0 0.0
2018-Jun-16 22:31N 40°43' W 074°07'0 0.0
2018-Jun-16 22:00N 40°43' W 074°07'0 0.0
2018-Jun-16 21:30N 40°43' W 074°07'0 0.0
2018-Jun-16 21:00N 40°43' W 074°07'0 0.0
2018-Jun-16 20:30N 40°43' W 074°07'0 0.0
2018-Jun-16 20:00N 40°43' W 074°07'0 0.0
2018-Jun-16 19:30N 40°43' W 074°07'0 0.6
2018-Jun-16 19:00N 40°42' W 074°07'4 7.2
2018-Jun-16 18:28N 40°39' W 074°09'3 2.1
2018-Jun-16 16:50N 40°36' W 074°12'3 8.2
2018-Jun-16 16:30N 40°39' W 074°11'4 7.7
2018-Jun-16 16:01N 40°39' W 074°06'3 6.2
2018-Jun-16 15:30N 40°41' W 074°02'3 5.8
2018-Jun-16 15:01N 40°43' W 074°01'3 5.9
2018-Jun-16 14:30N 40°46' W 074°00'  
2018-Jun-14 07:24N 40°52' W 073°56'4 4.9
2018-Jun-14 06:34N 40°48' W 073°59'0 5.0
2018-Jun-14 06:30N 40°48' W 073°59'3 5.3
2018-Jun-14 06:00N 40°46' W 074°01'3 5.9
2018-Jun-14 05:30N 40°43' W 074°02'3 6.4
2018-Jun-14 05:00N 40°40' W 074°03'3 5.6
2018-Jun-14 04:30N 40°37' W 074°03'2 0.8
2018-Jun-14 02:13N 40°36' W 074°02'0 1.2
2018-Jun-14 01:59N 40°35' W 074°02'  
Track history (hours):
 
Tides and Currents Weather Stations Pressure Air Temp Water Temp Dewpoint Dewpoint Depression Visibility Wind Speed Wind Dir Waves Ship Positions

Brooklyn

Owner: Apex Towing Company, Port Allen, LA. More information available from US FCC via Universal Licensing System and Coast Guard Vessel Documentation Center.

Last reported at 2018-Jun-24 01:30 UTC. Time now 2018-Jun-24 01:36 UTC.
Position N 39°16' W 076°34'.

Length 30 m; draft 4 m.

Type: Towing. MMSI: 367644910.

Date/timePositionNaut miles runAvg speedWind from/ knotsBaromVisibWave heightAir tempDewpointWater temp
2018-Jun-24 01:30N 39°16' W 076°34'0 0.0
2018-Jun-24 01:00N 39°16' W 076°34'0 0.0
2018-Jun-24 00:30N 39°16' W 076°34'0 0.0
2018-Jun-24 00:00N 39°16' W 076°34'0 0.0
2018-Jun-23 23:30N 39°16' W 076°34'0 0.0
2018-Jun-23 23:00N 39°16' W 076°34'0 0.0
2018-Jun-23 22:30N 39°16' W 076°34'0 0.0
2018-Jun-23 22:00N 39°16' W 076°34'0 0.0
2018-Jun-23 21:30N 39°16' W 076°34'0 0.0
2018-Jun-23 21:00N 39°16' W 076°34'0 0.0
2018-Jun-23 20:30N 39°16' W 076°34'0 0.0
2018-Jun-23 20:00N 39°16' W 076°34'0 0.0
2018-Jun-23 19:30N 39°16' W 076°34'0 0.0
2018-Jun-23 19:00N 39°16' W 076°34'0 0.0
2018-Jun-23 18:30N 39°16' W 076°34'0 0.0
2018-Jun-23 18:00N 39°16' W 076°34'0 0.0
2018-Jun-23 17:30N 39°16' W 076°34'0 0.0
2018-Jun-23 17:00N 39°16' W 076°34'0 0.0
2018-Jun-23 16:30N 39°16' W 076°34'0 0.0
2018-Jun-23 16:00N 39°16' W 076°34'0 0.0
2018-Jun-23 15:30N 39°16' W 076°34'0 0.0
2018-Jun-23 15:00N 39°16' W 076°34'0 0.0
2018-Jun-23 14:30N 39°16' W 076°34'0 0.0
2018-Jun-23 14:00N 39°16' W 076°34'0 0.0
2018-Jun-23 13:30N 39°16' W 076°34'0 0.0
2018-Jun-23 13:00N 39°16' W 076°34'0 0.0
2018-Jun-23 12:30N 39°16' W 076°34'0 0.0
2018-Jun-23 12:00N 39°16' W 076°34'0 0.0
2018-Jun-23 11:30N 39°16' W 076°34'0 0.0
2018-Jun-23 11:00N 39°16' W 076°34'0 0.0
2018-Jun-23 10:30N 39°16' W 076°34'0 0.0
2018-Jun-23 10:00N 39°16' W 076°34'0 0.0
2018-Jun-23 09:30N 39°16' W 076°34'0 0.0
2018-Jun-23 09:00N 39°16' W 076°34'0 0.0
2018-Jun-23 08:30N 39°16' W 076°34'0 0.0
2018-Jun-23 08:00N 39°16' W 076°34'0 0.2
2018-Jun-23 07:31N 39°16' W 076°34'3 5.5
2018-Jun-23 07:00N 39°14' W 076°33'4 7.7
2018-Jun-23 06:27N 39°11' W 076°28'12 5.4
2018-Jun-23 04:17N 39°15' W 076°14'5 7.0
2018-Jun-23 03:32N 39°20' W 076°11'0 7.8
2018-Jun-23 03:30N 39°20' W 076°11'4 7.8
2018-Jun-23 03:00N 39°23' W 076°07'4 7.6
2018-Jun-23 02:30N 39°24' W 076°03'4 7.2
2018-Jun-23 02:00N 39°27' W 075°60'4 7.4
2018-Jun-23 01:30N 39°30' W 075°56'4 7.4
2018-Jun-23 01:00N 39°32' W 075°52'4 7.0
2018-Jun-23 00:30N 39°32' W 075°48'4 7.6
2018-Jun-23 00:00N 39°33' W 075°43'4 7.7
2018-Jun-22 23:30N 39°33' W 075°38'4 7.2
2018-Jun-22 23:00N 39°34' W 075°33'3 5.5
2018-Jun-22 22:30N 39°31' W 075°33'1 2.3
2018-Jun-22 22:00N 39°30' W 075°33'1 1.7
2018-Jun-22 21:30N 39°29' W 075°34'3 6.8
2018-Jun-22 21:00N 39°26' W 075°32'4 7.7
2018-Jun-22 20:30N 39°23' W 075°29'4 7.1
2018-Jun-22 20:00N 39°20' W 075°26'3 7.0
2018-Jun-22 19:30N 39°18' W 075°23'3 6.6
2018-Jun-22 19:01N 39°15' W 075°20'3 6.1
2018-Jun-22 18:30N 39°13' W 075°17'3 6.2
2018-Jun-22 18:00N 39°10' W 075°16'3 6.6
2018-Jun-22 17:30N 39°07' W 075°13'3 6.1
2018-Jun-22 17:00N 39°05' W 075°11'3 5.9
2018-Jun-22 16:29N 39°02' W 075°09'7 5.8
2018-Jun-22 15:19N 38°56' W 075°06'3 6.3
2018-Jun-22 14:54N 38°53' W 075°04'12 4.9
2018-Jun-22 12:30N 38°51' W 074°50'4 7.4
2018-Jun-22 12:01N 38°54' W 074°47'4 7.6
2018-Jun-22 11:31N 38°57' W 074°44'4 7.4
2018-Jun-22 10:59N 38°60' W 074°41'4 7.6
2018-Jun-22 10:31N 39°02' W 074°37'5 7.8
2018-Jun-22 09:56N 39°05' W 074°33'3 8.1
2018-Jun-22 09:30N 39°08' W 074°30'4 8.0
2018-Jun-22 09:00N 39°11' W 074°27'4 8.1
2018-Jun-22 08:30N 39°14' W 074°23'4 7.9
2018-Jun-22 07:57N 39°17' W 074°20'3 7.7
2018-Jun-22 07:30N 39°20' W 074°17'5 7.9
2018-Jun-22 06:56N 39°24' W 074°13'3 7.9
2018-Jun-22 06:30N 39°26' W 074°11'4 7.9
2018-Jun-22 06:00N 39°30' W 074°08'4 7.7
2018-Jun-22 05:28N 39°33' W 074°05'4 7.6
2018-Jun-22 04:59N 39°37' W 074°03'4 7.5
2018-Jun-22 04:30N 39°40' W 074°01'11 7.5
2018-Jun-22 03:05N 39°50' W 073°57'41 7.1
2018-Jun-21 21:23N 40°31' W 073°59'3 6.8
2018-Jun-21 21:00N 40°32' W 074°01'3 4.5
2018-Jun-21 20:20N 40°35' W 074°02'0 0.2
2018-Jun-21 19:57N 40°35' W 074°02'2 4.4
2018-Jun-21 19:30N 40°37' W 074°03'3 5.5
2018-Jun-21 19:00N 40°40' W 074°03'3 5.8
2018-Jun-21 18:30N 40°43' W 074°02'3 6.5
2018-Jun-21 18:00N 40°46' W 074°01'  
2018-Jun-18 17:12N 40°52' W 073°56'5 9.3
2018-Jun-18 16:42N 40°48' W 073°59'0 0.4
2018-Jun-18 16:18N 40°48' W 073°59'2 5.4
2018-Jun-18 16:00N 40°47' W 073°60'612.9
2018-Jun-18 15:30N 40°41' W 074°03'4 7.0
2018-Jun-18 14:58N 40°39' W 074°07'0 0.0
2018-Jun-18 14:10N 40°39' W 074°07'0 0.0
2018-Jun-18 13:52N 40°39' W 074°07'0 0.0
2018-Jun-18 13:25N 40°39' W 074°07'0 0.0
2018-Jun-18 12:55N 40°39' W 074°07'0 0.0
2018-Jun-18 12:26N 40°39' W 074°07'0 0.1
2018-Jun-18 10:23N 40°39' W 074°07'0 0.0
2018-Jun-18 09:58N 40°39' W 074°07'0 0.0
2018-Jun-18 09:29N 40°39' W 074°07'0 0.0
2018-Jun-18 08:59N 40°39' W 074°07'0 0.0
2018-Jun-18 08:27N 40°39' W 074°07'0 0.0
2018-Jun-18 07:59N 40°39' W 074°07'0 0.0
2018-Jun-18 07:29N 40°39' W 074°07'0 0.0
2018-Jun-18 06:57N 40°39' W 074°07'0 0.0
2018-Jun-18 06:30N 40°39' W 074°07'0 0.0
2018-Jun-18 06:00N 40°39' W 074°07'0 0.0
2018-Jun-18 04:23N 40°39' W 074°07'0 0.0
2018-Jun-18 03:37N 40°39' W 074°07'0 0.0
2018-Jun-18 01:42N 40°39' W 074°07'0 0.0
2018-Jun-18 01:30N 40°39' W 074°07'0 0.0
2018-Jun-18 00:43N 40°39' W 074°07'0 0.0
2018-Jun-18 00:24N 40°39' W 074°07'0 0.0
2018-Jun-17 23:44N 40°39' W 074°07'0 0.0
2018-Jun-17 23:28N 40°39' W 074°07'0 0.0
2018-Jun-17 22:55N 40°39' W 074°07'0 0.0
2018-Jun-17 22:30N 40°39' W 074°07'0 0.0
2018-Jun-17 21:46N 40°39' W 074°07'0 0.0
2018-Jun-17 21:30N 40°39' W 074°07'3 5.6
2018-Jun-17 21:00N 40°38' W 074°03'3 4.6
2018-Jun-17 20:24N 40°36' W 074°02'0 0.5
2018-Jun-17 19:36N 40°36' W 074°02'1 8.9
2018-Jun-17 19:29N 40°37' W 074°03'4 7.3
2018-Jun-17 19:00N 40°39' W 074°07'5 0.3
2018-Jun-17 05:33N 40°37' W 074°12'0 9.6
2018-Jun-17 05:31N 40°37' W 074°12'4 8.8
2018-Jun-17 05:00N 40°39' W 074°07'0 0.2
2018-Jun-17 04:30N 40°39' W 074°07'0 0.0
2018-Jun-17 03:49N 40°39' W 074°07'0 0.0
2018-Jun-17 03:27N 40°39' W 074°07'0 0.9
2018-Jun-17 03:00N 40°39' W 074°07'0 0.0
2018-Jun-17 02:30N 40°39' W 074°07'0 0.0
2018-Jun-17 02:00N 40°39' W 074°07'0 0.0
2018-Jun-17 01:30N 40°39' W 074°07'0 0.0
2018-Jun-17 01:00N 40°39' W 074°07'1 2.6
2018-Jun-17 00:30N 40°39' W 074°09'4 8.0
2018-Jun-17 00:00N 40°42' W 074°07'0 0.2
2018-Jun-16 23:30N 40°43' W 074°07'0 0.0
2018-Jun-16 23:00N 40°43' W 074°07'0 0.0
2018-Jun-16 22:31N 40°43' W 074°07'0 0.0
2018-Jun-16 22:00N 40°43' W 074°07'0 0.0
2018-Jun-16 21:30N 40°43' W 074°07'0 0.0
2018-Jun-16 21:00N 40°43' W 074°07'0 0.0
2018-Jun-16 20:30N 40°43' W 074°07'0 0.0
2018-Jun-16 20:00N 40°43' W 074°07'0 0.0
2018-Jun-16 19:30N 40°43' W 074°07'0 0.6
2018-Jun-16 19:00N 40°42' W 074°07'4 7.2
2018-Jun-16 18:28N 40°39' W 074°09'3 2.1
2018-Jun-16 16:50N 40°36' W 074°12'3 8.2
2018-Jun-16 16:30N 40°39' W 074°11'4 7.7
2018-Jun-16 16:01N 40°39' W 074°06'3 6.2
2018-Jun-16 15:30N 40°41' W 074°02'3 5.8
2018-Jun-16 15:01N 40°43' W 074°01'3 5.9
2018-Jun-16 14:30N 40°46' W 074°00'  
2018-Jun-14 07:24N 40°52' W 073°56'4 4.9
2018-Jun-14 06:34N 40°48' W 073°59'0 5.0
2018-Jun-14 06:30N 40°48' W 073°59'3 5.3
2018-Jun-14 06:00N 40°46' W 074°01'3 5.9
2018-Jun-14 05:30N 40°43' W 074°02'3 6.4
2018-Jun-14 05:00N 40°40' W 074°03'3 5.6
2018-Jun-14 04:30N 40°37' W 074°03'2 0.8
2018-Jun-14 02:13N 40°36' W 074°02'0 1.2
2018-Jun-14 01:59N 40°35' W 074°02'  

Dump ship's entire track history